Terminal Aerodrome Forecast
Issued by NWS

Home | Current Version | Previous Version | Text Only | Print | Product List | Glossary On
Versions: 1 2 3 4 5 6 7 8 9 10 11 12 13 14 15 16 17 18 19 20
000
FTUS44 KTSA 010520
TAFMLC
TAF
KMLC 010520Z 0106/0206 00000KT P6SM SCT100 BKN250
     FM010900 VRB03KT 4SM BR BKN040
     FM011400 02005KT P6SM VCTS BKN035CB
      TEMPO 0116/0120 3SM TSRA BKN025CB
     FM012000 02005KT P6SM VCTS BKN025CB
      TEMPO 0120/0124 3SM TSRA BKN015CB
     FM020000 VRB03KT P6SM BKN050=

USA.gov is the U.S. government's official web portal to all federal, state and local government web resources and services.